createdAt,value
2017-03-06T00:00:20.508Z,0
2017-03-06T00:01:20.087Z,0
2017-03-06T00:02:20.474Z,0
2017-03-06T00:03:20.481Z,0
2017-03-06T00:04:20.463Z,0
2017-03-06T00:05:20.045Z,0
2017-03-06T00:06:20.060Z,0
2017-03-06T00:07:20.041Z,0
2017-03-06T00:08:20.441Z,0
2017-03-06T00:09:20.391Z,0
2017-03-06T00:10:20.379Z,0
2017-03-06T00:11:20.001Z,0
2017-03-06T00:12:20.384Z,0
2017-03-06T00:13:20.365Z,0
2017-03-06T00:14:20.356Z,0
2017-03-06T00:15:20.350Z,0
2017-03-06T00:16:19.944Z,0
2017-03-06T00:17:20.170Z,0
2017-03-06T00:18:20.320Z,0
2017-03-06T00:19:20.332Z,0
2017-03-06T00:20:20.274Z,0
2017-03-06T00:21:20.256Z,0
2017-03-06T00:22:20.246Z,0
2017-03-06T00:23:20.242Z,0
2017-03-06T00:24:20.267Z,0
2017-03-06T00:25:20.233Z,0
2017-03-06T00:26:20.202Z,0
2017-03-06T00:27:20.214Z,0
2017-03-06T00:28:19.800Z,0
2017-03-06T00:29:20.200Z,0
2017-03-06T00:30:20.161Z,0
2017-03-06T00:31:20.181Z,0
2017-03-06T00:32:19.767Z,0
2017-03-06T00:33:20.152Z,0
2017-03-06T00:34:20.159Z,0
2017-03-06T00:35:19.739Z,0
2017-03-06T00:36:19.718Z,0
2017-03-06T00:37:19.704Z,0
2017-03-06T00:38:20.089Z,0
2017-03-06T00:39:19.701Z,0
2017-03-06T00:40:19.677Z,0
2017-03-06T00:41:20.071Z,0
2017-03-06T00:42:20.030Z,0
2017-03-06T00:43:19.625Z,0
2017-03-06T00:44:20.003Z,0
2017-03-06T00:45:20.016Z,0
2017-03-06T00:46:19.979Z,0
2017-03-06T00:47:19.972Z,0
2017-03-06T00:48:19.962Z,0
2017-03-06T00:49:19.955Z,0
2017-03-06T00:50:19.955Z,0
2017-03-06T00:51:19.934Z,0
2017-03-06T00:52:19.911Z,0
2017-03-06T00:53:19.912Z,0
2017-03-06T00:54:19.915Z,0
2017-03-06T00:55:19.884Z,0
2017-03-06T00:56:19.866Z,0
2017-03-06T00:57:19.858Z,0
2017-03-06T00:58:19.848Z,0
2017-03-06T00:59:19.831Z,0
2017-03-06T01:00:19.824Z,0
2017-03-06T01:01:19.803Z,0
2017-03-06T01:02:19.822Z,0
2017-03-06T01:03:19.789Z,0
2017-03-06T01:04:19.772Z,0
2017-03-06T01:05:19.801Z,0
2017-03-06T01:06:19.775Z,0
2017-03-06T01:07:19.763Z,0
2017-03-06T01:08:19.725Z,0
2017-03-06T01:09:19.721Z,0
2017-03-06T01:10:19.315Z,0
2017-03-06T01:11:19.697Z,0
2017-03-06T01:12:19.677Z,0
2017-03-06T01:13:19.697Z,0
2017-03-06T01:14:19.691Z,0
2017-03-06T01:15:19.653Z,0
2017-03-06T01:16:19.629Z,0
2017-03-06T01:17:19.630Z,0
2017-03-06T01:18:19.620Z,0
2017-03-06T01:19:19.604Z,0
2017-03-06T01:20:19.626Z,0
2017-03-06T01:21:19.598Z,0
2017-03-06T01:22:19.196Z,0
2017-03-06T01:23:19.557Z,0
2017-03-06T01:24:19.572Z,0
2017-03-06T01:25:19.522Z,0
2017-03-06T01:26:19.510Z,0
2017-03-06T01:27:19.495Z,0
2017-03-06T01:28:19.499Z,0
2017-03-06T01:29:19.506Z,0
2017-03-06T01:30:19.507Z,0
2017-03-06T01:31:19.477Z,0
2017-03-06T01:32:19.068Z,0
2017-03-06T01:33:19.031Z,0
2017-03-06T01:34:19.417Z,0
2017-03-06T01:35:19.450Z,0
2017-03-06T01:36:19.404Z,0
2017-03-06T01:37:19.387Z,0
2017-03-06T01:38:18.975Z,0
2017-03-06T01:39:19.351Z,0
2017-03-06T01:40:19.368Z,0
2017-03-06T01:41:19.320Z,0
2017-03-06T01:42:19.347Z,0
2017-03-06T01:43:19.306Z,0
2017-03-06T01:44:19.301Z,0
2017-03-06T01:45:19.294Z,0
2017-03-06T01:46:19.275Z,0
2017-03-06T01:47:19.280Z,0
2017-03-06T01:48:19.245Z,0
2017-03-06T01:49:19.226Z,0
2017-03-06T01:50:19.239Z,0
2017-03-06T01:51:19.246Z,0
2017-03-06T01:52:19.207Z,0
2017-03-06T01:53:19.200Z,0
2017-03-06T01:54:19.195Z,0
2017-03-06T01:55:19.197Z,0
2017-03-06T01:56:19.177Z,0
2017-03-06T01:57:19.192Z,0
2017-03-06T01:58:19.129Z,0
2017-03-06T01:59:19.121Z,0
2017-03-06T02:00:18.722Z,0
2017-03-06T02:01:19.102Z,0
2017-03-06T02:02:19.079Z,0
2017-03-06T02:03:19.086Z,0
2017-03-06T02:04:19.081Z,0
2017-03-06T02:05:19.063Z,0
2017-03-06T02:06:19.061Z,0
2017-03-06T02:07:19.043Z,0
2017-03-06T02:08:18.650Z,0
2017-03-06T02:09:19.005Z,0
2017-03-06T02:10:19.003Z,0
2017-03-06T02:11:19.010Z,0
2017-03-06T02:12:18.970Z,0
2017-03-06T02:13:18.570Z,0
2017-03-06T02:14:18.962Z,0
2017-03-06T02:15:18.928Z,0
2017-03-06T02:16:18.934Z,0
2017-03-06T02:17:18.915Z,0
2017-03-06T02:18:18.890Z,0
2017-03-06T02:19:18.915Z,0
2017-03-06T02:20:18.867Z,0
2017-03-06T02:21:18.861Z,0
2017-03-06T02:22:18.847Z,0
2017-03-06T02:23:18.862Z,0
2017-03-06T02:24:18.907Z,0
2017-03-06T02:25:18.837Z,0
2017-03-06T02:26:18.839Z,0
2017-03-06T02:27:18.809Z,0
2017-03-06T02:28:18.782Z,0
2017-03-06T02:29:18.820Z,0
2017-03-06T02:30:18.771Z,0
2017-03-06T02:31:18.743Z,0
2017-03-06T02:32:18.763Z,0
2017-03-06T02:33:18.744Z,0
2017-03-06T02:34:18.335Z,0
2017-03-06T02:35:18.349Z,0
2017-03-06T02:36:18.684Z,0
2017-03-06T02:37:18.303Z,0
2017-03-06T02:38:18.679Z,0
2017-03-06T02:39:18.649Z,0
2017-03-06T02:40:18.644Z,0
2017-03-06T02:41:18.632Z,0
2017-03-06T02:42:18.621Z,0
2017-03-06T02:43:18.650Z,0
2017-03-06T02:44:18.597Z,0
2017-03-06T02:45:18.206Z,0
2017-03-06T02:46:18.184Z,0
2017-03-06T02:47:18.189Z,0
2017-03-06T02:48:18.161Z,0
2017-03-06T02:49:18.576Z,0
2017-03-06T02:50:18.530Z,0
2017-03-06T02:51:18.130Z,0
2017-03-06T02:52:18.120Z,0
2017-03-06T02:53:18.497Z,0
2017-03-06T02:54:18.497Z,0
2017-03-06T02:55:18.463Z,0
2017-03-06T02:56:18.515Z,0
2017-03-06T02:57:18.441Z,0
2017-03-06T02:58:18.058Z,0
2017-03-06T02:59:18.420Z,0
2017-03-06T03:00:18.414Z,0
2017-03-06T03:01:18.401Z,0
2017-03-06T03:02:18.406Z,0
2017-03-06T03:03:18.407Z,0
2017-03-06T03:04:18.396Z,0
2017-03-06T03:05:18.372Z,0
2017-03-06T03:06:17.973Z,0
2017-03-06T03:07:18.643Z,0
2017-03-06T03:08:17.935Z,0
2017-03-06T03:09:18.326Z,0
2017-03-06T03:10:18.291Z,0
2017-03-06T03:11:18.289Z,0
2017-03-06T03:12:18.293Z,0
2017-03-06T03:13:18.270Z,0
2017-03-06T03:14:18.260Z,0
2017-03-06T03:15:18.234Z,0
2017-03-06T03:16:18.223Z,0
2017-03-06T03:17:18.231Z,0
2017-03-06T03:18:18.240Z,0
2017-03-06T03:19:18.214Z,0
2017-03-06T03:20:18.184Z,0
2017-03-06T03:21:18.168Z,0
2017-03-06T03:22:18.185Z,0
2017-03-06T03:23:18.197Z,0
2017-03-06T03:24:18.133Z,0
2017-03-06T03:25:18.118Z,0
2017-03-06T03:26:18.110Z,0
2017-03-06T03:27:18.094Z,0
2017-03-06T03:28:18.095Z,0
2017-03-06T03:29:18.093Z,0
2017-03-06T03:30:18.064Z,0
2017-03-06T03:31:18.086Z,0
2017-03-06T03:32:18.076Z,0
2017-03-06T03:33:18.048Z,0
2017-03-06T03:34:18.068Z,0
2017-03-06T03:35:17.616Z,0
2017-03-06T03:36:18.001Z,0
2017-03-06T03:37:17.988Z,0
2017-03-06T03:38:17.984Z,0
2017-03-06T03:39:17.959Z,0
2017-03-06T03:40:17.982Z,0
2017-03-06T03:41:17.972Z,0
2017-03-06T03:42:17.923Z,0
2017-03-06T03:43:17.927Z,0
2017-03-06T03:44:17.900Z,0
2017-03-06T03:45:17.894Z,0
2017-03-06T03:46:17.875Z,0
2017-03-06T03:47:17.867Z,0
2017-03-06T03:48:17.487Z,0
2017-03-06T03:49:17.455Z,0
2017-03-06T03:50:17.839Z,0
2017-03-06T03:51:17.824Z,0
2017-03-06T03:52:17.815Z,0
2017-03-06T03:53:17.826Z,0
2017-03-06T03:54:17.797Z,0
2017-03-06T03:55:17.813Z,0
2017-03-06T03:56:17.769Z,0
2017-03-06T03:57:17.758Z,0
2017-03-06T03:58:17.748Z,0
2017-03-06T03:59:17.765Z,0
2017-03-06T04:00:17.729Z,0
2017-03-06T04:01:17.720Z,0
2017-03-06T04:02:17.307Z,0
2017-03-06T04:03:17.737Z,0
2017-03-06T04:04:17.722Z,0
2017-03-06T04:05:17.660Z,0
2017-03-06T04:06:17.649Z,0
2017-03-06T04:07:17.654Z,0
2017-03-06T04:08:17.645Z,0
2017-03-06T04:09:17.614Z,0
2017-03-06T04:10:17.600Z,0
2017-03-06T04:11:17.598Z,0
2017-03-06T04:12:17.577Z,0
2017-03-06T04:13:17.603Z,0
2017-03-06T04:14:17.554Z,0
2017-03-06T04:15:17.568Z,0
2017-03-06T04:16:17.155Z,0
2017-03-06T04:17:17.534Z,0
2017-03-06T04:18:17.547Z,0
2017-03-06T04:19:17.510Z,0
2017-03-06T04:20:17.104Z,0
2017-03-06T04:21:17.486Z,0
2017-03-06T04:22:17.455Z,0
2017-03-06T04:23:17.450Z,0
2017-03-06T04:24:17.452Z,0
2017-03-06T04:25:17.458Z,0
2017-03-06T04:26:17.413Z,0
2017-03-06T04:27:17.396Z,0
2017-03-06T04:28:17.393Z,0
2017-03-06T04:29:17.381Z,0
2017-03-06T04:30:17.392Z,0
2017-03-06T04:31:17.355Z,0
2017-03-06T04:32:17.344Z,0
2017-03-06T04:33:17.319Z,0
2017-03-06T04:34:17.312Z,0
2017-03-06T04:35:17.308Z,0
2017-03-06T04:36:17.285Z,0
2017-03-06T04:37:17.293Z,0
2017-03-06T04:38:17.255Z,0
2017-03-06T04:39:17.281Z,0
2017-03-06T04:40:17.233Z,0
2017-03-06T04:41:17.220Z,0
2017-03-06T04:42:17.235Z,0
2017-03-06T04:43:17.202Z,0
2017-03-06T04:44:16.795Z,0
2017-03-06T04:45:17.183Z,0
2017-03-06T04:46:17.165Z,0
2017-03-06T04:47:17.149Z,0
2017-03-06T04:48:17.133Z,0
2017-03-06T04:49:17.133Z,0
2017-03-06T04:50:16.734Z,0
2017-03-06T04:51:17.104Z,0
2017-03-06T04:52:17.105Z,0
2017-03-06T04:53:17.098Z,0
2017-03-06T04:54:17.052Z,0
2017-03-06T04:55:17.042Z,0
2017-03-06T04:56:17.039Z,0
2017-03-06T04:57:17.034Z,0
2017-03-06T04:58:16.627Z,0
2017-03-06T04:59:17.002Z,0
2017-03-06T05:00:16.981Z,0
2017-03-06T05:01:17.010Z,0
2017-03-06T05:02:16.950Z,0
2017-03-06T05:03:16.946Z,0
2017-03-06T05:04:16.927Z,0
2017-03-06T05:05:16.540Z,0
2017-03-06T05:06:16.903Z,0
2017-03-06T05:07:16.922Z,0
2017-03-06T05:08:16.882Z,0
2017-03-06T05:09:16.901Z,0
2017-03-06T05:10:16.882Z,0
2017-03-06T05:11:16.838Z,0
2017-03-06T05:12:16.828Z,0
2017-03-06T05:13:16.814Z,0
2017-03-06T05:14:16.454Z,0
2017-03-06T05:15:16.427Z,0
2017-03-06T05:16:16.774Z,0
2017-03-06T05:17:16.769Z,0
2017-03-06T05:18:16.786Z,0
2017-03-06T05:19:16.732Z,0
2017-03-06T05:20:16.352Z,0
2017-03-06T05:21:16.740Z,0
2017-03-06T05:22:16.721Z,0
2017-03-06T05:23:16.701Z,0
2017-03-06T05:24:16.678Z,0
2017-03-06T05:25:16.675Z,0
2017-03-06T05:26:16.641Z,0
2017-03-06T05:27:16.637Z,0
2017-03-06T05:28:16.659Z,0
2017-03-06T05:29:16.636Z,0
2017-03-06T05:30:16.603Z,0
2017-03-06T05:31:16.587Z,0
2017-03-06T05:32:16.580Z,0
2017-03-06T05:33:16.591Z,0
2017-03-06T05:34:16.154Z,5
2017-03-06T05:35:16.148Z,5
2017-03-06T05:36:16.134Z,5
2017-03-06T05:37:16.517Z,5
2017-03-06T05:38:16.497Z,5
2017-03-06T05:39:16.490Z,5
2017-03-06T05:40:16.484Z,5
2017-03-06T05:41:16.080Z,5
2017-03-06T05:42:16.458Z,10
2017-03-06T05:43:16.429Z,10
2017-03-06T05:44:16.429Z,10
2017-03-06T05:45:16.404Z,10
2017-03-06T05:46:16.018Z,10
2017-03-06T05:47:16.408Z,10
2017-03-06T05:48:16.650Z,15
2017-03-06T05:49:16.355Z,15
2017-03-06T05:50:16.350Z,15
2017-03-06T05:51:16.347Z,15
2017-03-06T05:52:16.328Z,15
2017-03-06T05:53:16.313Z,15
2017-03-06T05:54:15.931Z,15
2017-03-06T05:55:16.280Z,20
2017-03-06T05:56:16.307Z,20
2017-03-06T05:57:16.300Z,20
2017-03-06T05:58:16.256Z,20
2017-03-06T05:59:16.234Z,20
2017-03-06T06:00:15.845Z,25
2017-03-06T06:01:16.226Z,25
2017-03-06T06:02:15.833Z,25
2017-03-06T06:03:16.201Z,25
2017-03-06T06:04:16.194Z,30
2017-03-06T06:05:16.190Z,30
2017-03-06T06:06:16.155Z,30
2017-03-06T06:07:16.168Z,30
2017-03-06T06:08:16.388Z,35
2017-03-06T06:09:15.759Z,35
2017-03-06T06:10:15.713Z,35
2017-03-06T06:11:16.101Z,40
2017-03-06T06:12:16.108Z,40
2017-03-06T06:13:16.089Z,45
2017-03-06T06:14:16.058Z,45
2017-03-06T06:15:16.056Z,45
2017-03-06T06:16:16.024Z,50
2017-03-06T06:17:16.030Z,50
2017-03-06T06:18:16.013Z,50
2017-03-06T06:19:16.032Z,55
2017-03-06T06:20:15.612Z,55
2017-03-06T06:21:15.974Z,55
2017-03-06T06:22:15.587Z,60
2017-03-06T06:23:15.960Z,55
2017-03-06T06:24:15.951Z,55
2017-03-06T06:25:15.924Z,60
2017-03-06T06:26:15.930Z,60
2017-03-06T06:27:15.912Z,65
2017-03-06T06:28:15.920Z,65
2017-03-06T06:29:15.881Z,70
2017-03-06T06:30:15.491Z,70
2017-03-06T06:31:15.891Z,75
2017-03-06T06:32:15.465Z,80
2017-03-06T06:33:15.835Z,80
2017-03-06T06:34:15.458Z,85
2017-03-06T06:35:15.828Z,90
2017-03-06T06:36:15.826Z,90
2017-03-06T06:37:15.794Z,95
2017-03-06T06:38:15.797Z,95
2017-03-06T06:39:15.789Z,95
2017-03-06T06:40:15.785Z,100
2017-03-06T06:41:15.796Z,100
2017-03-06T06:42:15.788Z,100
2017-03-06T06:43:15.740Z,105
2017-03-06T06:44:15.727Z,105
2017-03-06T06:45:15.759Z,105
2017-03-06T06:46:15.690Z,110
2017-03-06T06:47:15.733Z,110
2017-03-06T06:48:15.690Z,110
2017-03-06T06:49:15.657Z,115
2017-03-06T06:50:15.265Z,115
2017-03-06T06:51:15.659Z,115
2017-03-06T06:52:15.632Z,115
2017-03-06T06:53:15.613Z,120
2017-03-06T06:54:15.605Z,120
2017-03-06T06:55:15.593Z,115
2017-03-06T06:56:15.604Z,120
2017-03-06T06:57:15.580Z,120
2017-03-06T06:58:15.564Z,120
2017-03-06T06:59:15.574Z,125
2017-03-06T07:00:15.542Z,130
2017-03-06T07:01:15.556Z,135
2017-03-06T07:02:15.518Z,140
2017-03-06T07:03:15.530Z,145
2017-03-06T07:04:15.508Z,150
2017-03-06T07:05:15.528Z,155
2017-03-06T07:06:15.504Z,160
2017-03-06T07:07:15.479Z,160
2017-03-06T07:08:15.115Z,170
2017-03-06T07:09:15.483Z,175
2017-03-06T07:10:15.440Z,185
2017-03-06T07:11:15.472Z,190
2017-03-06T07:12:15.420Z,200
2017-03-06T07:13:15.415Z,220
2017-03-06T07:14:15.433Z,225
2017-03-06T07:15:15.387Z,235
2017-03-06T07:16:15.406Z,245
2017-03-06T07:17:15.411Z,260
2017-03-06T07:18:14.979Z,270
2017-03-06T07:19:15.359Z,285
2017-03-06T07:20:15.358Z,305
2017-03-06T07:21:15.348Z,320
2017-03-06T07:22:15.340Z,340
2017-03-06T07:23:15.353Z,350
2017-03-06T07:24:14.919Z,370
2017-03-06T07:25:15.294Z,380
2017-03-06T07:26:15.301Z,395
2017-03-06T07:27:15.325Z,405
2017-03-06T07:28:15.271Z,410
2017-03-06T07:29:15.299Z,420
2017-03-06T07:30:15.265Z,430
2017-03-06T07:31:15.282Z,445
2017-03-06T07:32:15.273Z,455
2017-03-06T07:33:15.276Z,455
2017-03-06T07:34:14.452Z,465
2017-03-06T07:35:15.214Z,480
2017-03-06T07:36:15.210Z,485
2017-03-06T07:37:15.239Z,500
2017-03-06T07:38:14.813Z,505
2017-03-06T07:39:15.197Z,510
2017-03-06T07:40:15.183Z,520
2017-03-06T07:41:15.213Z,530
2017-03-06T07:42:14.800Z,535
2017-03-06T07:43:15.179Z,540
2017-03-06T07:44:15.150Z,540
2017-03-06T07:45:15.162Z,540
2017-03-06T07:46:15.146Z,545
2017-03-06T07:47:15.156Z,550
2017-03-06T07:48:15.145Z,555
2017-03-06T07:49:15.136Z,570
2017-03-06T07:50:14.736Z,560
2017-03-06T07:51:15.165Z,545
2017-03-06T07:52:15.142Z,545
2017-03-06T07:53:15.105Z,505
2017-03-06T07:54:15.103Z,520
2017-03-06T07:55:15.101Z,445
2017-03-06T07:56:14.327Z,425
2017-03-06T07:57:15.111Z,410
2017-03-06T07:58:15.086Z,400
2017-03-06T07:59:15.112Z,385
2017-03-06T08:00:14.695Z,375
2017-03-06T08:01:15.089Z,365
2017-03-06T08:02:15.089Z,350
2017-03-06T08:03:15.057Z,340
2017-03-06T08:04:15.063Z,340
2017-03-06T08:05:15.063Z,335
2017-03-06T08:06:15.050Z,330
2017-03-06T08:07:15.061Z,325
2017-03-06T08:08:15.044Z,325
2017-03-06T08:09:15.076Z,320
2017-03-06T08:10:15.034Z,315
2017-03-06T08:11:15.051Z,315
2017-03-06T08:12:14.640Z,315
2017-03-06T08:13:15.016Z,315
2017-03-06T08:14:14.656Z,315
2017-03-06T08:15:14.267Z,320
2017-03-06T08:16:15.037Z,330
2017-03-06T08:17:15.002Z,340
2017-03-06T08:18:14.619Z,350
2017-03-06T08:19:14.988Z,355
2017-03-06T08:20:14.594Z,360
2017-03-06T08:21:14.985Z,360
2017-03-06T08:22:14.202Z,360
2017-03-06T08:23:14.970Z,360
2017-03-06T08:24:14.596Z,355
2017-03-06T08:25:14.967Z,350
2017-03-06T08:26:14.945Z,350
2017-03-06T08:27:14.944Z,350
2017-03-06T08:28:14.945Z,350
2017-03-06T08:29:14.966Z,345
2017-03-06T08:30:14.553Z,340
2017-03-06T08:31:14.922Z,335
2017-03-06T08:32:14.536Z,340
2017-03-06T08:33:14.923Z,340
2017-03-06T08:34:14.900Z,345
2017-03-06T08:35:14.905Z,345
2017-03-06T08:36:14.892Z,350
2017-03-06T08:37:14.950Z,355
2017-03-06T08:38:14.884Z,365
2017-03-06T08:39:14.877Z,375
2017-03-06T08:40:14.494Z,385
2017-03-06T08:41:14.503Z,390
2017-03-06T08:42:14.865Z,400
2017-03-06T08:43:14.853Z,395
2017-03-06T08:44:14.847Z,385
2017-03-06T08:45:14.862Z,370
2017-03-06T08:46:14.880Z,360
2017-03-06T08:47:14.846Z,340
2017-03-06T08:48:14.460Z,325
2017-03-06T08:49:14.821Z,320
2017-03-06T08:50:14.840Z,315
2017-03-06T08:51:14.834Z,310
2017-03-06T08:52:14.817Z,300
2017-03-06T08:53:14.805Z,300
2017-03-06T08:54:14.028Z,300
2017-03-06T08:55:14.816Z,300
2017-03-06T08:56:14.396Z,300
2017-03-06T08:57:14.781Z,305
2017-03-06T08:58:14.388Z,310
2017-03-06T08:59:14.791Z,305
2017-03-06T09:00:14.764Z,300
2017-03-06T09:01:14.787Z,290
2017-03-06T09:02:14.768Z,275
2017-03-06T09:03:14.751Z,265
2017-03-06T09:04:14.742Z,260
2017-03-06T09:05:14.737Z,255
2017-03-06T09:06:14.738Z,250
2017-03-06T09:07:14.772Z,245
2017-03-06T09:08:14.353Z,235
2017-03-06T09:09:14.738Z,220
2017-03-06T09:10:14.730Z,210
2017-03-06T09:11:14.704Z,205
2017-03-06T09:12:14.708Z,200
2017-03-06T09:13:14.314Z,200
2017-03-06T09:14:14.682Z,205
2017-03-06T09:15:14.682Z,205
2017-03-06T09:16:14.673Z,210
2017-03-06T09:17:14.670Z,210
2017-03-06T09:18:14.279Z,210
2017-03-06T09:19:14.649Z,215
2017-03-06T09:20:14.693Z,225
2017-03-06T09:21:14.637Z,235
2017-03-06T09:22:14.647Z,245
2017-03-06T09:23:14.654Z,250
2017-03-06T09:24:14.625Z,245
2017-03-06T09:25:14.617Z,240
2017-03-06T09:26:14.644Z,235
2017-03-06T09:27:14.630Z,230
2017-03-06T09:28:14.608Z,225
2017-03-06T09:29:14.594Z,225
2017-03-06T09:30:14.596Z,220
2017-03-06T09:31:14.626Z,215
2017-03-06T09:32:14.189Z,205
2017-03-06T09:33:14.580Z,200
2017-03-06T09:34:14.187Z,205
2017-03-06T09:35:14.558Z,210
2017-03-06T09:36:14.556Z,215
2017-03-06T09:37:14.548Z,220
2017-03-06T09:38:14.553Z,220
2017-03-06T09:39:14.561Z,220
2017-03-06T09:40:14.546Z,205
2017-03-06T09:41:14.526Z,200
2017-03-06T09:42:14.160Z,195
2017-03-06T09:43:14.510Z,190
2017-03-06T09:44:14.125Z,190
2017-03-06T09:45:14.497Z,190
2017-03-06T09:46:14.121Z,195
2017-03-06T09:47:14.505Z,200
2017-03-06T09:48:14.505Z,205
2017-03-06T09:49:14.482Z,205
2017-03-06T09:50:14.756Z,205
2017-03-06T09:51:14.505Z,215
2017-03-06T09:52:14.478Z,210
2017-03-06T09:53:14.471Z,205
2017-03-06T09:54:14.445Z,200
2017-03-06T09:55:14.434Z,200
2017-03-06T09:56:14.055Z,200
2017-03-06T09:57:14.457Z,200
2017-03-06T09:58:14.456Z,200
2017-03-06T09:59:14.425Z,200
2017-03-06T10:00:14.435Z,200
2017-03-06T10:01:14.035Z,200
2017-03-06T10:02:14.016Z,200
2017-03-06T10:03:13.989Z,200
2017-03-06T10:04:14.014Z,205
2017-03-06T10:05:14.408Z,200
2017-03-06T10:06:14.385Z,195
2017-03-06T10:07:14.558Z,190
2017-03-06T10:08:14.349Z,190
2017-03-06T10:09:14.363Z,190
2017-03-06T10:10:14.354Z,195
2017-03-06T10:11:14.375Z,200
2017-03-06T10:12:14.338Z,200
2017-03-06T10:13:14.326Z,210
2017-03-06T10:14:13.944Z,220
2017-03-06T10:15:14.351Z,220
2017-03-06T10:16:14.362Z,225
2017-03-06T10:17:14.290Z,230
2017-03-06T10:18:14.304Z,235
2017-03-06T10:19:14.300Z,245
2017-03-06T10:20:13.956Z,255
2017-03-06T10:21:14.269Z,270
2017-03-06T10:22:14.272Z,275
2017-03-06T10:23:14.269Z,280
2017-03-06T10:24:14.289Z,290
2017-03-06T10:25:14.284Z,300
2017-03-06T10:26:14.235Z,315
2017-03-06T10:27:14.234Z,330
2017-03-06T10:28:14.218Z,340
2017-03-06T10:29:14.516Z,355
2017-03-06T10:30:14.263Z,375
2017-03-06T10:31:14.215Z,395
2017-03-06T10:32:13.842Z,410
2017-03-06T10:33:14.209Z,430
2017-03-06T10:34:14.196Z,435
2017-03-06T10:35:14.180Z,425
2017-03-06T10:36:13.803Z,415
2017-03-06T10:37:14.181Z,405
2017-03-06T10:38:14.171Z,400
2017-03-06T10:39:14.164Z,395
2017-03-06T10:40:14.146Z,395
2017-03-06T10:41:13.384Z,375
2017-03-06T10:42:14.149Z,355
2017-03-06T10:43:14.133Z,335
2017-03-06T10:44:14.127Z,315
2017-03-06T10:45:14.142Z,295
2017-03-06T10:46:14.112Z,285
2017-03-06T10:47:13.735Z,275
2017-03-06T10:48:14.112Z,275
2017-03-06T10:49:14.121Z,275
2017-03-06T10:50:14.090Z,270
2017-03-06T10:51:14.085Z,265
2017-03-06T10:52:14.077Z,260
2017-03-06T10:53:14.080Z,265
2017-03-06T10:54:13.310Z,275
2017-03-06T10:55:14.071Z,305
2017-03-06T10:56:14.097Z,335
2017-03-06T10:57:14.069Z,365
2017-03-06T10:58:13.666Z,400
2017-03-06T10:59:13.658Z,435
2017-03-06T11:00:13.266Z,485
2017-03-06T11:01:14.065Z,525
2017-03-06T11:02:13.664Z,555
2017-03-06T11:03:13.693Z,560
2017-03-06T11:04:13.641Z,550
2017-03-06T11:05:13.640Z,530
2017-03-06T11:06:13.657Z,515
2017-03-06T11:07:13.620Z,505
2017-03-06T11:08:13.639Z,500
2017-03-06T11:09:14.014Z,500
2017-03-06T11:10:13.245Z,500
2017-03-06T11:11:13.603Z,495
2017-03-06T11:12:13.607Z,495
2017-03-06T11:13:13.587Z,490
2017-03-06T11:14:13.968Z,495
2017-03-06T11:15:13.958Z,510
2017-03-06T11:16:13.973Z,525
2017-03-06T11:17:13.584Z,545
2017-03-06T11:18:13.213Z,565
2017-03-06T11:19:14.276Z,580
2017-03-06T11:20:13.572Z,575
2017-03-06T11:21:13.957Z,570
2017-03-06T11:22:13.950Z,560
2017-03-06T11:23:13.961Z,545
2017-03-06T11:24:13.865Z,525
2017-03-06T11:25:13.952Z,515
2017-03-06T11:26:13.531Z,490
2017-03-06T11:27:13.922Z,470
2017-03-06T11:28:13.910Z,460
2017-03-06T11:29:13.907Z,450
2017-03-06T11:30:13.521Z,455
2017-03-06T11:31:13.557Z,455
2017-03-06T11:32:13.897Z,450
2017-03-06T11:33:13.519Z,450
2017-03-06T11:34:13.903Z,440
2017-03-06T11:35:13.894Z,440
2017-03-06T11:36:13.509Z,440
2017-03-06T11:37:13.934Z,435
2017-03-06T11:38:13.926Z,420
2017-03-06T11:39:13.879Z,415
2017-03-06T11:40:13.490Z,420
2017-03-06T11:41:13.495Z,435
2017-03-06T11:42:13.894Z,450
2017-03-06T11:43:13.865Z,475
2017-03-06T11:44:13.864Z,495
2017-03-06T11:45:13.873Z,510
2017-03-06T11:46:13.472Z,525
2017-03-06T11:47:13.849Z,530
2017-03-06T11:48:13.854Z,525
2017-03-06T11:49:13.851Z,530
2017-03-06T11:50:13.106Z,545
2017-03-06T11:51:13.452Z,555
2017-03-06T11:52:13.832Z,545
2017-03-06T11:53:13.881Z,530
2017-03-06T11:54:13.054Z,520
2017-03-06T11:55:13.864Z,495
2017-03-06T11:56:13.445Z,470
2017-03-06T11:57:13.447Z,440
2017-03-06T11:58:13.860Z,400
2017-03-06T11:59:13.822Z,365
2017-03-06T12:00:13.808Z,330
2017-03-06T12:01:13.031Z,310
2017-03-06T12:02:13.843Z,300
2017-03-06T12:03:13.798Z,300
2017-03-06T12:04:13.435Z,315
2017-03-06T12:05:13.795Z,330
2017-03-06T12:06:13.837Z,330
2017-03-06T12:07:13.789Z,330
2017-03-06T12:08:13.813Z,325
2017-03-06T12:09:13.423Z,320
2017-03-06T12:10:13.771Z,320
2017-03-06T12:11:13.769Z,325
2017-03-06T12:12:13.815Z,335
2017-03-06T12:13:13.384Z,340
2017-03-06T12:14:13.396Z,345
2017-03-06T12:15:13.779Z,350
2017-03-06T12:16:13.745Z,350
2017-03-06T12:17:13.753Z,350
2017-03-06T12:18:13.740Z,350
2017-03-06T12:19:13.796Z,345
2017-03-06T12:20:13.361Z,340
2017-03-06T12:21:13.767Z,340
2017-03-06T12:22:13.721Z,345
2017-03-06T12:23:13.717Z,350
2017-03-06T12:24:13.754Z,355
2017-03-06T12:25:13.759Z,360
2017-03-06T12:26:13.744Z,375
2017-03-06T12:27:13.356Z,390
2017-03-06T12:28:13.759Z,395
2017-03-06T12:29:13.713Z,380
2017-03-06T12:30:13.729Z,360
2017-03-06T12:31:13.695Z,340
2017-03-06T12:32:13.698Z,330
2017-03-06T12:33:13.728Z,330
2017-03-06T12:34:13.750Z,340
2017-03-06T12:35:13.303Z,345
2017-03-06T12:36:13.316Z,355
2017-03-06T12:37:13.698Z,365
2017-03-06T12:38:13.661Z,365
2017-03-06T12:39:13.667Z,370
2017-03-06T12:40:13.294Z,365
2017-03-06T12:41:13.671Z,345
2017-03-06T12:42:13.662Z,335
2017-03-06T12:43:13.648Z,320
2017-03-06T12:44:13.639Z,315
2017-03-06T12:45:13.651Z,300
2017-03-06T12:46:13.245Z,290
2017-03-06T12:47:13.631Z,275
2017-03-06T12:48:13.627Z,260
2017-03-06T12:49:13.642Z,250
2017-03-06T12:50:13.650Z,240
2017-03-06T12:51:13.615Z,235
2017-03-06T12:52:13.611Z,230
2017-03-06T12:53:13.606Z,235
2017-03-06T12:54:13.804Z,245
2017-03-06T12:55:13.594Z,255
2017-03-06T12:56:13.597Z,260
2017-03-06T12:57:13.616Z,260
2017-03-06T12:58:13.615Z,255
2017-03-06T12:59:13.576Z,250
2017-03-06T13:00:13.183Z,245
2017-03-06T13:01:13.592Z,240
2017-03-06T13:02:13.179Z,225
2017-03-06T13:03:13.594Z,220
2017-03-06T13:04:13.573Z,205
2017-03-06T13:05:12.775Z,195
2017-03-06T13:06:13.577Z,190
2017-03-06T13:07:13.548Z,190
2017-03-06T13:08:13.544Z,185
2017-03-06T13:09:13.527Z,180
2017-03-06T13:10:13.534Z,165
2017-03-06T13:11:13.526Z,150
2017-03-06T13:12:13.511Z,135
2017-03-06T13:13:13.525Z,130
2017-03-06T13:14:13.533Z,125
2017-03-06T13:15:13.532Z,125
2017-03-06T13:16:13.111Z,125
2017-03-06T13:17:13.491Z,130
2017-03-06T13:18:13.488Z,135
2017-03-06T13:19:13.481Z,135
2017-03-06T13:20:13.502Z,135
2017-03-06T13:21:13.111Z,125
2017-03-06T13:22:13.073Z,120
2017-03-06T13:23:13.449Z,120
2017-03-06T13:24:13.450Z,120
2017-03-06T13:25:13.470Z,125
2017-03-06T13:26:13.443Z,140
2017-03-06T13:27:13.484Z,150
2017-03-06T13:28:13.424Z,155
2017-03-06T13:29:13.415Z,155
2017-03-06T13:30:13.437Z,155
2017-03-06T13:31:12.687Z,155
2017-03-06T13:32:13.030Z,155
2017-03-06T13:33:12.641Z,160
2017-03-06T13:34:13.386Z,165
2017-03-06T13:35:13.403Z,170
2017-03-06T13:36:13.385Z,175
2017-03-06T13:37:13.389Z,175
2017-03-06T13:38:13.358Z,180
2017-03-06T13:39:13.359Z,190
2017-03-06T13:40:12.974Z,205
2017-03-06T13:41:13.353Z,220
2017-03-06T13:42:13.354Z,235
2017-03-06T13:43:13.324Z,245
2017-03-06T13:44:13.322Z,245
2017-03-06T13:45:13.308Z,245
2017-03-06T13:46:13.306Z,250
2017-03-06T13:47:13.295Z,260
2017-03-06T13:48:13.285Z,270
2017-03-06T13:49:13.296Z,285
2017-03-06T13:50:12.905Z,295
2017-03-06T13:51:13.281Z,300
2017-03-06T13:52:12.884Z,305
2017-03-06T13:53:13.271Z,310
2017-03-06T13:54:12.875Z,310
2017-03-06T13:55:12.491Z,305
2017-03-06T13:56:12.845Z,300
2017-03-06T13:57:13.269Z,295
2017-03-06T13:58:13.229Z,290
2017-03-06T13:59:13.234Z,285
2017-03-06T14:00:12.827Z,285
2017-03-06T14:01:13.230Z,280
2017-03-06T14:02:13.196Z,275
2017-03-06T14:03:13.200Z,275
2017-03-06T14:04:13.185Z,275
2017-03-06T14:05:13.175Z,270
2017-03-06T14:06:13.170Z,265
2017-03-06T14:07:13.195Z,255
2017-03-06T14:08:13.155Z,240
2017-03-06T14:09:13.161Z,225
2017-03-06T14:10:13.156Z,205
2017-03-06T14:11:12.761Z,185